createdAt,value
2023-05-28T00:00:47.885Z,2.70
2023-05-28T00:06:11.870Z,2.00
2023-05-28T00:11:15.277Z,2.10
2023-05-28T00:16:18.854Z,2.30
2023-05-28T00:21:22.411Z,3.10
2023-05-28T00:26:27.230Z,2.70
2023-05-28T00:31:30.865Z,3.00
2023-05-28T00:36:34.403Z,3.00
2023-05-28T00:41:38.211Z,3.30
2023-05-28T00:46:46.235Z,3.60
2023-05-28T00:51:50.575Z,3.80
2023-05-28T01:01:59.140Z,3.00
2023-05-28T01:07:02.913Z,2.30
2023-05-28T01:12:08.614Z,2.10
2023-05-28T01:17:13.653Z,2.50
2023-05-28T01:22:22.204Z,2.40
2023-05-28T01:27:26.327Z,2.60
2023-05-28T01:32:29.875Z,3.30
2023-05-28T01:37:36.753Z,2.40
2023-05-28T01:42:40.621Z,2.70
2023-05-28T01:47:45.056Z,2.90
2023-05-28T01:57:52.138Z,2.50
2023-05-28T02:02:55.730Z,3.20
2023-05-28T02:08:00.196Z,2.10
2023-05-28T02:13:04.852Z,2.90
2023-05-28T02:18:11.816Z,2.70
2023-05-28T02:23:15.760Z,2.70
2023-05-28T02:28:19.174Z,2.90
2023-05-28T02:33:23.513Z,3.40
2023-05-28T02:43:30.344Z,3.20
2023-05-28T02:48:34.107Z,3.00
2023-05-28T02:53:37.731Z,2.80
2023-05-28T02:58:41.391Z,2.50
2023-05-28T03:03:45.028Z,3.30
2023-05-28T03:08:48.627Z,2.90
2023-05-28T03:13:52.444Z,2.80
2023-05-28T03:18:55.968Z,2.80
2023-05-28T03:23:59.480Z,2.50
2023-05-28T03:29:03.110Z,2.60
2023-05-28T03:34:06.719Z,2.20
2023-05-28T03:39:11.161Z,2.60
2023-05-28T03:49:18.200Z,1.90
2023-05-28T03:54:21.802Z,2.30
2023-05-28T03:59:25.316Z,2.80
2023-05-28T04:04:29.107Z,1.80
2023-05-28T04:09:32.876Z,2.20
2023-05-28T04:14:36.477Z,2.20
2023-05-28T04:19:41.114Z,5.80
2023-05-28T04:24:45.248Z,3.60
2023-05-28T04:29:49.172Z,4.00
2023-05-28T04:34:54.743Z,4.00
2023-05-28T04:39:58.362Z,3.40
2023-05-28T04:45:02.480Z,3.10
2023-05-28T04:50:07.549Z,2.40
2023-05-28T04:55:11.462Z,2.30
2023-05-28T05:00:15.451Z,2.40
2023-05-28T05:10:22.624Z,2.00
2023-05-28T05:15:26.344Z,1.90
2023-05-28T05:20:31.314Z,1.90
2023-05-28T05:25:34.928Z,1.70
2023-05-28T05:30:39.142Z,1.70
2023-05-28T05:40:45.871Z,1.40
2023-05-28T05:45:49.496Z,1.50
2023-05-28T05:50:57.146Z,1.30
2023-05-28T05:56:00.613Z,1.30
2023-05-28T06:01:04.678Z,1.10
2023-05-28T06:06:08.204Z,1.00
2023-05-28T06:11:11.779Z,1.40
2023-05-28T06:16:15.285Z,1.20
2023-05-28T06:21:19.501Z,1.20
2023-05-28T06:26:23.803Z,1.10
2023-05-28T06:31:27.511Z,1.10
2023-05-28T06:36:30.984Z,1.00
2023-05-28T06:41:34.465Z,0.90
2023-05-28T06:46:38.060Z,1.00
2023-05-28T06:51:41.735Z,1.30
2023-05-28T06:56:45.763Z,1.00
2023-05-28T07:01:49.312Z,1.00
2023-05-28T07:06:54.842Z,1.10
2023-05-28T07:11:58.383Z,1.00
2023-05-28T07:17:02.065Z,1.00
2023-05-28T07:22:05.920Z,0.90
2023-05-28T07:32:12.886Z,1.20
2023-05-28T07:37:16.653Z,0.80
2023-05-28T07:42:21.010Z,1.40
2023-05-28T07:47:24.624Z,1.10
2023-05-28T07:52:30.892Z,1.00
2023-05-28T07:57:34.606Z,0.90
2023-05-28T08:07:41.948Z,0.80
2023-05-28T08:12:45.463Z,0.80
2023-05-28T08:17:48.999Z,1.00
2023-05-28T08:27:56.008Z,1.00
2023-05-28T08:32:59.458Z,1.00
2023-05-28T08:38:03.343Z,1.10
2023-05-28T08:43:06.857Z,0.70
2023-05-28T08:48:12.347Z,0.90
2023-05-28T08:53:24.753Z,1.10
2023-05-28T08:58:29.496Z,0.90
2023-05-28T09:03:34.915Z,0.90
2023-05-28T09:08:38.374Z,1.40
2023-05-28T09:13:46.998Z,1.10
2023-05-28T09:19:04.068Z,0.90
2023-05-28T09:24:07.752Z,1.30
2023-05-28T09:29:14.551Z,1.20
2023-05-28T09:34:19.798Z,1.00
2023-05-28T09:39:27.677Z,1.30
2023-05-28T09:44:35.808Z,0.90
2023-05-28T09:49:39.357Z,1.10
2023-05-28T09:59:49.553Z,1.30
2023-05-28T10:04:58.260Z,1.20
2023-05-28T10:10:03.920Z,1.00
2023-05-28T10:15:08.836Z,0.90
2023-05-28T10:20:13.124Z,0.80
2023-05-28T10:25:17.484Z,0.70
2023-05-28T10:30:38.918Z,1.10
2023-05-28T10:35:55.085Z,0.90
2023-05-28T10:41:03.109Z,0.80
2023-05-28T10:46:24.734Z,1.20
2023-05-28T10:51:45.109Z,1.30
2023-05-28T10:57:16.299Z,0.90
2023-05-28T11:02:28.858Z,0.80
2023-05-28T11:07:35.206Z,1.20
2023-05-28T11:12:41.038Z,1.10
2023-05-28T11:17:46.917Z,1.00
2023-05-28T11:22:50.644Z,0.70
2023-05-28T11:27:55.187Z,1.20
2023-05-28T11:33:03.730Z,1.10
2023-05-28T11:38:07.332Z,0.90
2023-05-28T11:43:10.844Z,0.90
2023-05-28T11:48:14.684Z,1.60
2023-05-28T11:53:18.186Z,1.40
2023-05-28T11:58:31.816Z,1.00
2023-05-28T12:03:36.245Z,1.10
2023-05-28T12:08:41.431Z,1.10
2023-05-28T12:13:44.939Z,1.50
2023-05-28T12:18:48.561Z,1.00
2023-05-28T12:23:52.078Z,1.00
2023-05-28T12:28:55.797Z,0.90
2023-05-28T12:33:59.311Z,1.50
2023-05-28T12:39:03.185Z,1.00
2023-05-28T12:44:06.750Z,1.10
2023-05-28T12:49:10.470Z,1.40
2023-05-28T12:54:13.886Z,1.20
2023-05-28T12:59:25.588Z,1.00
2023-05-28T13:04:29.314Z,0.70
2023-05-28T13:09:32.927Z,1.20
2023-05-28T13:14:36.967Z,1.20
2023-05-28T13:19:40.472Z,0.90
2023-05-28T13:24:47.634Z,1.40
2023-05-28T13:29:51.499Z,1.40
2023-05-28T13:34:55.115Z,1.20
2023-05-28T13:39:58.939Z,0.90
2023-05-28T13:45:02.456Z,0.90
2023-05-28T13:50:07.202Z,9.30
2023-05-28T13:55:10.822Z,0.90
2023-05-28T14:00:23.057Z,1.10
2023-05-28T14:05:38.287Z,0.80
2023-05-28T14:10:42.271Z,1.00
2023-05-28T14:15:45.981Z,1.00
2023-05-28T14:20:49.481Z,1.40
2023-05-28T14:25:53.365Z,1.60
2023-05-28T14:30:57.488Z,3.60
2023-05-28T14:36:14.757Z,4.40
2023-05-28T14:41:19.637Z,6.80
2023-05-28T14:46:23.204Z,10.10
2023-05-28T14:51:27.681Z,13.40
2023-05-28T14:56:31.502Z,16.60
2023-05-28T15:01:34.882Z,17.90
2023-05-28T15:06:38.534Z,20.40
2023-05-28T15:11:42.047Z,17.10
2023-05-28T15:16:46.417Z,17.40
2023-05-28T15:21:50.920Z,16.50
2023-05-28T15:26:54.639Z,16.00
2023-05-28T15:32:01.646Z,14.50
2023-05-28T15:37:05.963Z,14.50
2023-05-28T15:42:10.121Z,13.50
2023-05-28T15:47:13.621Z,12.70
2023-05-28T15:52:17.437Z,10.70
2023-05-28T15:57:21.269Z,9.80
2023-05-28T16:02:26.068Z,9.00
2023-05-28T16:07:29.942Z,8.30
2023-05-28T16:12:37.509Z,6.20
2023-05-28T16:17:43.762Z,4.70
2023-05-28T16:22:47.866Z,3.80
2023-05-28T16:27:54.655Z,3.80
2023-05-28T16:33:01.590Z,2.70
2023-05-28T16:38:07.400Z,2.20
2023-05-28T16:43:11.187Z,2.10
2023-05-28T16:48:15.211Z,1.80
2023-05-28T16:53:19.193Z,1.80
2023-05-28T16:58:22.705Z,1.50
2023-05-28T17:03:26.446Z,1.80
2023-05-28T17:08:31.375Z,1.60
2023-05-28T17:13:34.889Z,1.60
2023-05-28T17:18:40.326Z,2.10
2023-05-28T17:23:46.528Z,1.40
2023-05-28T17:28:50.042Z,1.70
2023-05-28T17:33:53.558Z,1.80
2023-05-28T17:39:00.729Z,2.20
2023-05-28T17:44:05.001Z,2.70
2023-05-28T17:49:09.136Z,1.90
2023-05-28T17:54:14.343Z,1.80
2023-05-28T17:59:18.420Z,2.20
2023-05-28T18:04:22.540Z,1.90
2023-05-28T18:09:26.568Z,1.90
2023-05-28T18:14:31.861Z,2.90
2023-05-28T18:19:35.440Z,3.80
2023-05-28T18:24:39.058Z,2.00
2023-05-28T18:29:43.094Z,2.20
2023-05-28T18:34:46.605Z,2.50
2023-05-28T18:39:54.328Z,2.00
2023-05-28T18:44:59.064Z,2.60
2023-05-28T18:50:04.017Z,2.60
2023-05-28T18:55:08.093Z,3.10
2023-05-28T19:00:12.073Z,1.90
2023-05-28T19:05:15.788Z,2.00
2023-05-28T19:10:19.726Z,1.90
2023-05-28T19:15:23.592Z,1.80
2023-05-28T19:20:27.597Z,2.20
2023-05-28T19:25:31.387Z,1.90
2023-05-28T19:30:35.004Z,3.20
2023-05-28T19:40:42.335Z,3.90
2023-05-28T19:45:47.546Z,3.10
2023-05-28T19:50:51.545Z,5.70
2023-05-28T20:00:58.654Z,4.10
2023-05-28T20:06:02.273Z,3.70
2023-05-28T20:11:05.652Z,3.70
2023-05-28T20:16:09.259Z,3.70
2023-05-28T20:21:13.248Z,3.20
2023-05-28T20:26:17.160Z,3.00
2023-05-28T20:31:20.993Z,2.60
2023-05-28T20:36:24.600Z,2.30
2023-05-28T20:41:28.219Z,3.00
2023-05-28T20:46:31.665Z,2.60
2023-05-28T20:51:36.371Z,2.00
2023-05-28T20:56:41.585Z,3.60
2023-05-28T21:01:48.278Z,2.10
2023-05-28T21:06:51.829Z,2.70
2023-05-28T21:11:55.344Z,3.10
2023-05-28T21:17:02.857Z,2.40
2023-05-28T21:22:07.393Z,3.60
2023-05-28T21:27:11.378Z,2.70
2023-05-28T21:32:15.854Z,2.70
2023-05-28T21:37:20.906Z,3.00
2023-05-28T21:42:24.528Z,2.70
2023-05-28T21:47:28.151Z,2.70
2023-05-28T21:52:34.020Z,3.00
2023-05-28T21:57:39.379Z,2.50
2023-05-28T22:02:44.205Z,3.00
2023-05-28T22:07:48.556Z,2.50
2023-05-28T22:17:56.882Z,2.80
2023-05-28T22:23:00.440Z,2.90
2023-05-28T22:28:04.270Z,2.90
2023-05-28T22:33:07.914Z,3.70
2023-05-28T22:38:11.955Z,2.40
2023-05-28T22:43:15.835Z,3.80
2023-05-28T22:48:20.892Z,5.30
2023-05-28T22:53:24.512Z,4.30
2023-05-28T22:58:28.125Z,2.90
2023-05-28T23:03:32.372Z,2.80
2023-05-28T23:13:39.589Z,3.10
2023-05-28T23:18:43.511Z,3.00
2023-05-28T23:23:47.540Z,2.60
2023-05-28T23:28:52.449Z,2.60
2023-05-28T23:33:55.906Z,2.50
2023-05-28T23:38:59.517Z,2.60
2023-05-28T23:44:04.376Z,2.70
2023-05-28T23:49:09.931Z,2.80
2023-05-28T23:54:13.450Z,3.50
2023-05-28T23:59:16.960Z,2.80
